Monkey Run, Missouri
Current Conditions -  °F | °C
As of 1:55 AM on Saturday 20 Dec 2014 (Local Time) from KHAE Reporting Station
Overcast Overcast  
Wind Chill: 34°   Ceiling: 6000
Heat Index: 34°   Visibility: 10mi
Dew Point: 28°   Wind: 3mph
Humidity: 81%   Direction: 150°SSE
Pressure: 30.24"   Gusts: NA
Location:  39.7145°N, 91.4209°W
Report Text: KHAE 200755Z AUTO 15003KT 10SM SCT049 OVC060 01/M02 A3024 RMK AO2
Loading
Personal Weather Stations






























Interactive Weather Map New forecast layout! Learn more

10-Day Weather Forecast

Advertisements
Track Severe Weather on mobile